Clover Valley, Nevada Weather observations

Data are for 10 minute period ending at time listed.
 Day   Time   Solar   Ave.   Ave.  Ave.  Vector  Max.   Baro.   Total    
  of    of     Rad.   Air    Rel.  Wind   Wind   Wind  Press.  Precip.   
Year   Day            Temp.  Hum.  Speed  Dir.   Gust                    
2017   (PST)  Kw/m2    F      %     mph   deg.    mph    mb.     in.     
-------------------------------------------------------------------------
  22    4:20   0.00   20.0    81   11.8   166    16.8   821.0    0.00 
  22    4:30   0.00   22.3    76   11.8   170    13.8   821.1    0.00 
  22    4:40   0.00   21.2    79   10.7   157    12.6   821.2    0.00 
  22    4:50   0.00   21.7    80   10.9   164    13.7   821.1    0.00 
  22    5:00   0.00   22.9    79   12.4   172    14.8   821.0    0.00 
  22    5:10   0.00   23.4    79   12.5   175    15.9   820.8    0.00 
  22    5:20   0.00   23.8    79   13.8   179    17.9   820.7    0.00 
  22    5:30   0.00   23.8    81   13.8   181    16.7   820.7    0.00 
  22    5:40   0.00   22.8    85   12.0   169    14.5   820.9    0.00 
  22    5:50   0.00   22.3    88   11.4   168    13.7   820.8    0.00 
  22    6:00   0.00   22.7    90   10.3   161    11.9   820.7    0.00 
  22    6:10   0.00   22.9    90    8.7   159    10.8   820.6    0.00 
  22    6:20   0.00   22.8    90    6.9   158    10.2   820.6    0.00 
  22    6:30   0.00   23.8    90    8.6   177    10.2   820.4    0.00 
  22    6:40   0.00   24.2    90    9.6   172    11.7   820.4    0.00 
  22    6:50   0.00   24.5    90   11.0   180    16.0   820.4    0.00 
  22    7:00   0.00   24.9    91   13.3   180    16.8   820.3    0.00 
  22    7:10   0.00   24.4    91   11.2   170    13.8   820.3    0.00 
  22    7:20   0.01   24.6    92    9.4   169    11.3   820.3    0.00 
  22    7:30   0.01   25.1    91    9.9   165    12.1   820.2    0.00 
  22    7:40   0.02   24.6    91    8.5   137    10.2   820.1    0.00 
  22    7:50   0.03   24.6    91   10.1   153    11.8   819.7    0.00 
  22    8:00   0.05   24.9    90   10.9   171    13.7   819.8    0.00 
  22    8:10   0.06   25.1    90   12.8   176    15.4   819.7    0.00 
  22    8:20   0.07   25.4    90   13.6   183    16.0   819.9    0.00 
  22    8:30   0.07   25.9    89   13.8   178    17.1   819.9    0.00 
  22    8:40   0.09   26.6    87   14.9   168    17.0   819.8    0.00 
  22    8:50   0.11   26.7    86   13.4   159    16.7   819.8    0.00 
  22    9:00   0.11   26.8    86   13.2   161    17.8   819.9    0.00 
  22    9:10   0.13   27.4    85   13.1   158    20.9   819.9    0.00 
  22    9:20   0.15   27.2    87   12.7   162    17.6   819.7    0.00 
  22    9:30   0.17   27.2    89   13.9   163    18.3   819.3    0.00 
  22    9:40   0.19   27.8    88   13.8   180    16.7   819.4    0.00 
  22    9:50   0.18   28.2    86   13.8   182    18.0   819.4    0.00 
  22   10:00   0.16   28.2    86   13.4   180    16.4   819.2    0.00 
  22   10:10   0.14   28.2    87   13.2   183    17.0   819.3    0.00 
  22   10:20   0.14   28.5    86   12.5   182    16.9   819.2    0.00 
  22   10:30   0.14   28.8    85   12.2   179    15.6   819.2    0.00 
  22   10:40   0.14   28.9    87   13.2   190    18.9   819.4    0.00 
  22   10:50   0.16   28.8    89   12.8   188    16.7   819.1    0.00 
  22   11:00   0.15   28.9    90   11.7   178    15.5   819.0    0.00 
  22   11:10   0.17   28.8    90   11.6   175    16.4   818.9    0.00 
  22   11:20   0.20   29.2    89   15.6   184    20.0   818.6    0.00 
  22   11:30   0.20   29.2    89   17.3   187    22.5   818.6    0.00 
  22   11:40   0.19   29.2    90   16.8   186    20.7   818.4    0.00 
  22   11:50   0.19   29.2    90   17.1   185    21.4   818.3    0.00 
  22   12:00   0.19   29.3    90   18.2   188    23.8   818.1    0.00 
  22   12:10   0.18   29.1    91   19.3   189    25.1   817.8    0.00 
  22   12:20   0.20   29.1    91   18.7   191    23.4   817.5    0.00 
  22   12:30   0.19   29.1    92   18.5   193    23.5   817.5    0.00 
  22   12:40   0.19   29.2    92   19.5   190    24.0   817.1    0.00 
  22   12:50   0.21   29.7    90   18.9   191    22.6   817.0    0.00 
  22   13:00   0.17   29.8    90   17.9   191    23.1   817.2    0.00 
  22   13:10   0.19   30.0    89   14.6   185    20.9   816.6    0.00 
  22   13:20   0.21   30.4    88   13.3   183    18.7   816.7    0.00 
  22   13:30   0.16   30.4    88   12.1   181    15.5   816.7    0.00 
  22   13:40   0.15   30.3    88   12.1   177    15.7   816.7    0.00 
  22   13:50   0.16   30.3    89   12.7   175    16.6   816.5    0.00 
  22   14:00   0.17   30.5    89   14.1   181    18.6   816.4    0.00 
  22   14:10   0.14   30.8    89   15.0   188    19.8   816.1    0.00 
  22   14:20   0.13   30.9    90   11.5   184    15.6   816.2    0.00 
  22   14:30   0.10   30.9    90   11.4   187    16.1   816.5    0.00 
  22   14:40   0.10   30.9    91   11.8   185    16.5   816.3    0.00 
  22   14:50   0.10   30.8    92   11.9   192    15.6   816.2    0.00 
  22   15:00   0.10   30.7    93   11.0   197    14.8   816.2    0.00 
  22   15:10   0.08   30.8    92    9.1   199    12.2   816.1    0.00 
  22   15:20   0.07   30.8    92   10.7   192    14.1   816.2    0.00 
  22   15:30   0.06   30.8    92    9.2   179    11.6   816.0    0.00 
  22   15:40   0.05   30.6    92    9.1   175    11.0   815.9    0.00 
  22   15:50   0.05   30.3    94    9.1   166    11.0   815.9    0.00 
  22   16:00   0.04   30.0    95    8.3   159    10.7   815.8    0.00 
  22   16:10   0.02   29.9    95    9.0   161    11.6   815.8    0.00 
  22   16:20   0.02   30.0    95   10.0   170    12.1   815.8    0.00 
  22   16:30   0.01   30.1    95   10.1   177    12.1   815.8    0.00 
  22   16:40   0.01   30.0    95    9.8   178    12.7   815.8    0.00 
  22   16:50   0.01   30.0    96   10.1   175    12.3   815.7    0.00 
  22   17:00   0.00   29.9    96    9.8   172    12.4   815.6    0.00 
  22   17:10   0.00   29.8    96   10.0   172    12.1   815.7    0.00 
  22   17:20   0.00   29.7    97    9.3   173    12.3   815.8    0.00 
  22   17:30   0.00   29.8    97    8.6   167    11.5   815.9    0.00 
  22   17:40   0.00   29.8    97    7.0   168     9.3   815.7    0.00 
  22   17:50   0.00   29.8    97    8.1   168    10.9   815.7    0.00 
  22   18:00   0.00   29.7    97    8.2   167    11.1   815.4    0.00 
  22   18:10   0.00   29.6    97    7.3   162     9.5   815.4    0.00 
  22   18:20   0.00   29.6    97    6.7   159     8.9   815.1    0.00 
  22   18:30   0.00   29.7    97    6.3   167     7.6   815.1    0.00 
  22   18:40   0.00   29.7    97    7.0   173     8.9   815.0    0.00 
  22   18:50   0.00   29.8    97    8.2   179    10.3   815.1    0.00 
  22   19:00   0.00   30.0    98    8.8   180    11.1   815.1    0.00 
  22   19:10   0.00   30.1    98   10.0   175    13.0   814.9    0.00 
  22   19:20   0.00   30.2    98    9.2   176    11.3   814.7    0.00 
  22   19:30   0.00   30.1    98    7.4   174     9.9   814.6    0.00 
  22   19:40   0.00   29.8    98    7.0   167     8.8   814.7    0.00 
  22   19:50   0.00   29.5    98    7.1   152     8.6   814.7    0.00 
  22   20:00   0.00   29.3    98    7.8   145     9.6   814.4    0.00 
  22   20:10   0.00   29.4    98    7.4   156     9.1   814.3    0.00 
  22   20:20   0.00   29.5    98    8.0   160    10.0   814.3    0.00 
  22   20:30   0.00   29.4    98    8.5   159    11.2   814.3    0.00 
  22   20:40   0.00   29.2    98    7.2   147     9.3   814.2    0.00 
  22   20:50   0.00   29.3    98    7.8   162    10.2   814.2    0.00 
  22   21:00   0.00   29.4    98    8.3   173    10.7   814.1    0.00 
  22   21:10   0.00   29.5    98    8.8   155    11.2   813.9    0.00 
  22   21:20   0.00   29.5    98    9.3   166    12.3   814.0    0.00 
  22   21:30   0.00   29.6    98    8.6   162    11.7   814.0    0.00 
  22   21:40   0.00   29.6    98    6.0   158     8.8   814.1    0.00 
  22   21:50   0.00   29.5    98    5.8   145     6.8   814.0    0.00 
  22   22:00   0.00   29.5    98    6.5   131     8.6   813.8    0.00 
  22   22:10   0.00   29.2    98    5.6   137     6.9   813.8    0.00 
  22   22:20   0.00   28.9    98    5.5   132     6.4   813.7    0.00 
  22   22:30   0.00   28.8    98    4.3   128     5.4   813.6    0.00 
  22   22:40   0.00   29.1    98    4.4   130     6.6   813.5    0.00 
  22   22:50   0.00   29.3    98    4.5   146     5.6   813.5    0.00 
  22   23:00   0.00   29.4    98    5.1   170     7.8   813.4    0.00 
  22   23:10   0.00   29.6    98    7.3   180    10.0   813.4    0.00 
  22   23:20   0.00   29.8    98    8.7   176    11.3   813.2    0.00 
  22   23:30   0.00   29.9    98    7.9   176    10.7   813.0    0.00 
  22   23:40   0.00   30.0    98    7.8   167     9.4   812.8    0.00 
  22   23:50   0.00   30.0    98    7.5   152     9.1   812.6    0.00 
  23    0:00   0.00   29.8    98    5.2   136     7.5   812.5    0.00 
  23    0:10   0.00   29.6    98    5.5   130     8.1   812.3    0.00 
  23    0:20   0.00   29.5    98    6.4   128     8.0   812.1    0.00 
  23    0:30   0.00   29.5    98    5.2   129     7.2   811.8    0.00 
  23    0:40   0.00   29.4    98    6.3   133     7.6   811.5    0.00 
  23    0:50   0.00   29.2    98    5.8   140     7.2   811.4    0.00 
  23    1:00   0.00   29.2    98    5.2   136     6.4   811.2    0.00 
  23    1:10   0.00   29.2    98    5.8   119     6.7   811.0    0.00 
  23    1:20   0.00   29.2    98    5.9   108     7.3   810.9    0.00 
  23    1:30   0.00   29.2    98    6.2   115     7.3   810.8    0.00 
  23    1:40   0.00   29.2    98    6.9   123     8.6   810.9    0.00 
  23    1:50   0.00   29.2    98    7.0   128     8.3   810.8    0.00 
  23    2:00   0.00   29.3    98    6.7   131     8.3   810.8    0.00 
  23    2:10   0.00   29.3    98    6.1   123     7.8   810.6    0.00 
  23    2:20   0.00   29.3    98    4.8   126     6.6   810.5    0.00 
  23    2:30   0.00   29.4    98    4.1   129     5.8   810.5    0.00 
  23    2:40   0.00   29.4    98    5.7   111     6.9   810.3    0.00 
  23    2:50   0.00   29.3    98    6.2   112     7.7   810.2    0.00 
  23    3:00   0.00   29.4    98    5.5   108     7.0   810.1    0.00 
  23    3:10   0.00   29.5    98    6.7    98     8.2   809.9    0.00 
  23    3:20   0.00   29.5    98    6.0    99     7.2   809.8    0.00 
  23    3:30   0.00   29.6    98    6.5    96     8.0   809.6    0.00 
  23    3:40   0.00   29.7    98    6.4    95     7.5   809.5    0.00 
  23    3:50   0.00   29.7    98    6.4   100     7.8   809.3    0.00 
  23    4:00   0.00   29.7    98    6.4   101     7.7   809.2    0.00 
  23    4:10   0.00   29.7    98    5.8   109     7.6   809.2    0.00 

Return to Clover Valley graphs page.


Western Regional Climate Center,wrcc@dri.edu